Manchester, VT

11:56 AM EST on December 19, 2014 (GMT -0500)
Morse State | Change Station
CLOSE
Current Station
Airport
Location: Bennington,
Elevation: 827 ft
Nearby Weather Stations

Elev 827 ft 42.89 °N, 73.25 °W | Updated 1 hour ago

Overcast
Overcast
29 °F
Feels Like 22 °F
N
7
Wind Variable Wind from Variable

Today
High -- | Low -- °F
--% Chance of Precip.
Yesterday
High -- | Low -- °F
Precip. -- in
7:19 AM 4:19 PM
Waning Crescent, 7% visible
Pressure 30.03 in
Visibility 10.0 miles
Clouds Overcast 2700 ft
Windchill 22 °F
Dew Point 21 °F
Humidity 72%
Rainfall 0.00 in
Snow Depth Not available.
UV 1 out of 12
Pollen .10 out of 12
Air Quality Not available.
Flu Activity Not available.
METAR KDDH 191554Z AUTO VRB06KT 10SM OVC027 M02/M06 A3000 RMK AO2 SLP168 T10171061

More Conditions Fewer Conditions

Pressure 30.03 in
Visibility 10.0 miles
Clouds Overcast 2700 ft
Windchill 22 °F
Dew Point 21 °F
Humidity 72%
Rainfall 0.00 in
Snow Depth Not available.
UV 1 out of 12
Pollen .10 out of 12
Air Quality Not available.
Flu Activity Not available.
METAR KDDH 191554Z AUTO VRB06KT 10SM OVC027 M02/M06 A3000 RMK AO2 SLP168 T10171061

More Conditions Fewer Conditions

10-Day Weather Forecast

Almanac

Astronomy

Dec. 19, 2014 Rise Set
Actual Time
Civil Twilight
Nautical Twilight
Astronomical Twilight
Moon
Length of Visible Light
Length of Day
Tomorrow will be .
, % of the Moon is Illuminated

Today's Extremes

State Highs State Lows

Community

WunderPhotos

Upload Photos

1,779,005 photos uploaded!

WunderBlogs® & News

Nearby

Air Quality

  Air Quality AQ Index Pollutant
Not available.

Snow Depth

Station Depth Elevation

Earthquake Activity

City Distance Mag. Time & Date
Minimum magnitude displayed is 2.5.

Coastal Water Temperatures

Place Temperature

Nearby Weather Stations